Time;durP1;ratioP1;P1;durP2;ratioP2;P2;SDS_P1;SDS_P2;PMS_P1;PMS_P2;Temp;Humidity;BMP_temperature;BMP_pressure;BME280_temperature;BME280_humidity;BME280_pressure;Samples;Min_cycle;Max_cycle;Signal;HPM_P1;HPM_P2
2023/07/15 00:01:36;;;;;;;7.80;5.60;;;;;;;20.73;100.00;98804.78;4485381;31;20620;-67
2023/07/15 00:04:11;;;;;;;8.00;5.07;;;;;;;20.71;100.00;98790.88;4485657;31;20107;-67
2023/07/15 00:06:38;;;;;;;7.00;4.72;;;;;;;20.71;100.00;98788.19;4485538;32;20114;-67
2023/07/15 00:09:06;;;;;;;7.55;5.50;;;;;;;20.63;100.00;98796.31;4485327;31;20527;-67
2023/07/15 00:11:41;;;;;;;8.07;5.20;;;;;;;20.68;100.00;98788.59;4485285;32;20143;-67
2023/07/15 00:14:25;;;;;;;6.40;4.87;;;;;;;20.63;100.00;98793.66;4484203;32;20096;-67
2023/07/15 00:16:53;;;;;;;9.38;5.57;;;;;;;20.57;100.00;98794.47;4485427;32;20098;-67
2023/07/15 00:19:22;;;;;;;7.72;4.87;;;;;;;20.43;100.00;98795.47;4485421;32;20100;-67
2023/07/15 00:21:49;;;;;;;6.62;5.15;;;;;;;20.37;100.00;98795.25;4485407;31;20087;-67
2023/07/15 00:24:17;;;;;;;12.00;4.97;;;;;;;20.26;100.00;98787.84;4485492;31;20096;-67
2023/07/15 00:26:47;;;;;;;10.30;5.53;;;;;;;20.25;100.00;98791.50;4485274;31;20375;-67
2023/07/15 00:29:16;;;;;;;8.13;4.75;;;;;;;20.25;100.00;98790.72;4485520;31;20092;-67
2023/07/15 00:31:43;;;;;;;12.15;5.87;;;;;;;20.27;100.00;98786.00;4485331;32;20088;-67
2023/07/15 00:34:13;;;;;;;6.75;6.03;;;;;;;20.29;100.00;98782.13;4485418;32;20454;-67
2023/07/15 00:36:42;;;;;;;7.80;5.22;;;;;;;20.32;100.00;98775.59;4485230;32;20160;-67
2023/07/15 00:39:09;;;;;;;12.07;5.07;;;;;;;20.50;100.00;98781.16;4485272;32;20173;-67
2023/07/15 00:41:37;;;;;;;6.45;4.97;;;;;;;20.54;100.00;98781.56;4485341;32;20468;-67
2023/07/15 00:44:06;;;;;;;9.85;5.10;;;;;;;20.58;100.00;98774.84;4485100;32;20148;-67
2023/07/15 00:46:53;;;;;;;7.75;5.00;;;;;;;20.64;100.00;98784.66;4485146;32;20085;-67
2023/07/15 00:49:31;;;;;;;8.02;5.37;;;;;;;20.64;100.00;98779.34;4485448;31;20108;-67
2023/07/15 00:52:02;;;;;;;7.35;5.15;;;;;;;20.71;100.00;98769.56;4485129;32;20449;-67
2023/07/15 00:54:34;;;;;;;7.70;4.78;;;;;;;20.70;100.00;98773.25;4485215;31;20199;-67
2023/07/15 00:57:04;;;;;;;9.07;5.50;;;;;;;20.65;100.00;98770.38;4483791;32;20700;-67
2023/07/15 00:59:33;;;;;;;8.07;5.07;;;;;;;20.54;100.00;98763.75;4485032;31;20575;-67
2023/07/15 01:02:01;;;;;;;8.48;5.37;;;;;;;20.46;100.00;98773.78;4483807;32;20127;-67
2023/07/15 01:04:28;;;;;;;7.55;4.97;;;;;;;20.42;100.00;98764.56;4485061;31;20110;-67
2023/07/15 01:06:57;;;;;;;6.53;4.95;;;;;;;20.27;100.00;98760.19;4484926;32;20142;-67
2023/07/15 01:09:25;;;;;;;5.62;4.47;;;;;;;20.19;100.00;98760.41;4485107;32;20104;-67
2023/07/15 01:11:52;;;;;;;8.95;5.37;;;;;;;20.13;100.00;98763.84;4483529;32;20173;-67
2023/07/15 01:14:19;;;;;;;8.25;4.50;;;;;;;20.05;100.00;98764.84;4484175;32;20100;-67
2023/07/15 01:16:47;;;;;;;8.38;5.05;;;;;;;20.05;100.00;98758.72;4485059;32;20158;-67
2023/07/15 01:19:18;;;;;;;7.03;5.15;;;;;;;19.98;100.00;98762.16;4484918;32;20847;-67
2023/07/15 01:21:50;;;;;;;8.60;5.62;;;;;;;19.88;100.00;98759.06;4484860;32;20174;-67
2023/07/15 01:24:21;;;;;;;6.10;4.90;;;;;;;19.80;100.00;98752.06;4483636;32;20108;-67
2023/07/15 01:26:58;;;;;;;6.60;5.00;;;;;;;19.72;100.00;98756.69;4485093;32;20135;-67
2023/07/15 01:29:25;;;;;;;5.70;5.07;;;;;;;19.67;100.00;98751.97;4484804;32;20080;-67
2023/07/15 01:31:53;;;;;;;7.60;4.75;;;;;;;19.63;100.00;98754.19;4484662;32;20142;-67
2023/07/15 01:34:21;;;;;;;9.63;5.00;;;;;;;19.61;100.00;98753.56;4484677;32;20096;-67
2023/07/15 01:36:48;;;;;;;10.02;4.47;;;;;;;19.62;100.00;98757.88;4484796;32;20470;-67
2023/07/15 01:39:15;;;;;;;8.77;4.68;;;;;;;19.67;100.00;98760.75;4483544;32;20477;-67
2023/07/15 01:41:45;;;;;;;6.10;4.40;;;;;;;19.62;100.00;98759.69;4484855;31;20164;-67
2023/07/15 01:44:13;;;;;;;10.68;5.30;;;;;;;19.66;100.00;98761.75;4484592;31;20110;-67
2023/07/15 01:46:40;;;;;;;6.78;5.32;;;;;;;19.71;100.00;98755.03;4484522;31;20122;-67
2023/07/15 01:49:08;;;;;;;10.40;5.43;;;;;;;19.81;100.00;98758.19;4484445;31;20085;-67
2023/07/15 01:51:35;;;;;;;6.97;5.35;;;;;;;19.84;100.00;98763.12;4484472;31;20104;-67
2023/07/15 01:54:03;;;;;;;10.05;5.15;;;;;;;19.89;100.00;98760.69;4484494;31;20088;-67
2023/07/15 01:56:30;;;;;;;5.87;4.90;;;;;;;19.93;100.00;98766.44;4484402;31;20122;-66
2023/07/15 01:58:57;;;;;;;9.20;5.03;;;;;;;19.93;100.00;98764.59;4484721;31;20108;-67
2023/07/15 02:01:25;;;;;;;7.93;4.82;;;;;;;19.93;100.00;98764.59;4484317;31;20119;-67
2023/07/15 02:03:54;;;;;;;5.45;4.70;;;;;;;19.98;100.00;98766.66;4484376;32;20104;-67
2023/07/15 02:06:21;;;;;;;7.95;5.07;;;;;;;20.00;100.00;98767.25;4484093;32;20423;-67
2023/07/15 02:08:49;;;;;;;9.00;4.72;;;;;;;19.97;100.00;98768.50;4484283;32;20134;-67
2023/07/15 02:11:17;;;;;;;6.28;4.32;;;;;;;19.96;100.00;98763.38;4484290;32;20226;-67
2023/07/15 02:13:44;;;;;;;6.65;4.40;;;;;;;20.02;100.00;98759.94;4484034;32;20126;-67
2023/07/15 02:16:11;;;;;;;6.32;4.97;;;;;;;19.98;100.00;98762.16;4484537;32;20157;-67
2023/07/15 02:18:42;;;;;;;6.70;5.18;;;;;;;20.01;100.00;98769.72;4484137;31;20492;-67
2023/07/15 02:21:09;;;;;;;5.28;4.30;;;;;;;19.95;100.00;98770.53;4484337;32;20089;-67
2023/07/15 02:23:36;;;;;;;5.87;4.68;;;;;;;19.89;100.00;98768.66;4484026;32;20122;-67
2023/07/15 02:26:03;;;;;;;5.87;4.45;;;;;;;19.90;100.00;98767.66;4485309;32;20096;-67
2023/07/15 02:28:32;;;;;;;7.43;4.82;;;;;;;19.92;100.00;98765.59;4486137;32;20088;-67
2023/07/15 02:31:01;;;;;;;6.40;4.75;;;;;;;19.92;100.00;98770.91;4486287;32;20088;-67
2023/07/15 02:33:30;;;;;;;6.15;4.82;;;;;;;19.84;100.00;98773.75;4486313;32;20088;-67
2023/07/15 02:35:57;;;;;;;8.50;5.00;;;;;;;19.87;100.00;98773.34;4486192;32;20089;-67
2023/07/15 02:38:25;;;;;;;8.85;4.95;;;;;;;19.83;100.00;98772.09;4486067;31;20328;-67
2023/07/15 02:40:54;;;;;;;8.57;4.95;;;;;;;19.84;100.00;98779.06;4486256;32;20123;-67
2023/07/15 02:43:21;;;;;;;6.55;4.95;;;;;;;19.82;100.00;98773.94;4485998;31;20454;-67
2023/07/15 02:45:51;;;;;;;6.55;5.00;;;;;;;19.81;100.00;98768.84;4486428;31;20088;-67
2023/07/15 02:48:21;;;;;;;7.65;4.87;;;;;;;19.74;100.00;98770.59;4486105;32;20187;-67
2023/07/15 02:50:54;;;;;;;7.40;4.93;;;;;;;19.77;100.00;98775.53;4484681;32;20104;-67
2023/07/15 02:53:21;;;;;;;7.22;4.90;;;;;;;19.77;100.00;98773.72;4485876;31;20559;-67
2023/07/15 02:55:50;;;;;;;8.18;5.20;;;;;;;19.73;100.00;98777.75;4486317;31;20088;-67
2023/07/15 02:58:18;;;;;;;14.82;5.53;;;;;;;19.68;100.00;98780.16;4486067;31;20168;-67
2023/07/15 03:00:48;;;;;;;8.75;5.10;;;;;;;19.67;100.00;98776.69;4486260;31;20123;-67
2023/07/15 03:03:15;;;;;;;6.68;4.75;;;;;;;19.67;100.00;98775.88;4485924;31;20092;-67
2023/07/15 03:05:47;;;;;;;6.43;4.87;;;;;;;19.65;100.00;98777.91;4486024;32;20108;-67
2023/07/15 03:08:15;;;;;;;6.60;4.60;;;;;;;19.65;100.00;98777.91;4485861;32;20522;-67
2023/07/15 03:10:46;;;;;;;5.97;4.40;;;;;;;19.63;100.00;98777.28;4485962;32;20203;-67
2023/07/15 03:13:13;;;;;;;8.48;4.82;;;;;;;19.69;100.00;98779.16;4485738;31;20092;-67
2023/07/15 03:15:41;;;;;;;12.02;4.90;;;;;;;19.71;100.00;98773.66;4486093;31;20092;-67
2023/07/15 03:18:09;;;;;;;7.80;4.55;;;;;;;19.68;100.00;98775.69;4485584;32;20089;-67
2023/07/15 03:20:36;;;;;;;5.95;4.30;;;;;;;19.79;100.00;98776.19;4485802;32;20184;-67
2023/07/15 03:23:03;;;;;;;7.57;4.20;;;;;;;19.76;100.00;98780.03;4485783;32;20450;-67
2023/07/15 03:25:31;;;;;;;6.78;4.22;;;;;;;19.81;100.00;98768.84;4485990;31;20093;-67
2023/07/15 03:27:59;;;;;;;8.68;4.53;;;;;;;19.85;100.00;98773.56;4485672;32;20085;-67
2023/07/15 03:30:26;;;;;;;8.02;3.87;;;;;;;19.84;100.00;98763.12;4485741;32;20558;-67
2023/07/15 03:32:56;;;;;;;6.20;4.40;;;;;;;20.05;100.00;98769.34;4485513;31;20084;-67
2023/07/15 03:35:24;;;;;;;6.90;4.43;;;;;;;20.10;100.00;98774.87;4485743;32;20382;-67
2023/07/15 03:37:52;;;;;;;6.95;4.60;;;;;;;20.12;100.00;98772.84;4485483;31;20104;-67
2023/07/15 03:40:19;;;;;;;7.70;4.07;;;;;;;20.16;100.00;98771.44;4485892;31;20100;-67
2023/07/15 03:42:48;;;;;;;8.02;4.78;;;;;;;20.26;100.00;98768.38;4485614;32;20088;-67
2023/07/15 03:45:15;;;;;;;6.57;4.50;;;;;;;20.30;100.00;98777.62;4485562;32;20108;-67
2023/07/15 03:47:42;;;;;;;5.45;4.03;;;;;;;20.27;100.00;98778.00;4484646;32;20100;-67
2023/07/15 03:50:09;;;;;;;5.55;4.65;;;;;;;20.29;100.00;98776.81;4485466;32;20088;-67
2023/07/15 03:52:37;;;;;;;9.55;4.75;;;;;;;20.37;100.00;98778.47;4485446;32;20158;-67
2023/07/15 03:55:05;;;;;;;6.28;4.62;;;;;;;20.43;100.00;98782.16;4485483;31;20389;-67
2023/07/15 03:57:33;;;;;;;7.72;4.10;;;;;;;20.47;100.00;98781.56;4485485;31;20161;-67
2023/07/15 04:00:03;;;;;;;5.43;3.92;;;;;;;20.56;100.00;98784.88;4485628;32;20218;-67
2023/07/15 04:02:39;;;;;;;6.43;4.47;;;;;;;20.59;100.00;98780.97;4485450;32;20092;-67
2023/07/15 04:05:07;;;;;;;4.82;3.78;;;;;;;20.61;100.00;98774.44;4485387;32;20108;-67
2023/07/15 04:07:34;;;;;;;5.37;4.07;;;;;;;20.68;100.00;98777.97;4485286;32;20124;-67
2023/07/15 04:10:02;;;;;;;10.68;4.50;;;;;;;20.70;100.00;98769.78;4485406;32;20391;-67
2023/07/15 04:12:30;;;;;;;7.37;4.45;;;;;;;20.77;100.00;98767.91;4485322;32;20453;-67
2023/07/15 04:14:58;;;;;;;5.15;3.83;;;;;;;20.81;100.00;98773.66;4485350;32;20530;-67
2023/07/15 04:17:26;;;;;;;7.57;4.35;;;;;;;20.95;100.00;98772.63;4485304;31;20543;-67
2023/07/15 04:19:54;;;;;;;7.57;4.55;;;;;;;21.07;100.00;98768.38;4485621;32;20116;-67
2023/07/15 04:22:23;;;;;;;6.03;3.78;;;;;;;21.05;100.00;98764.25;4485569;32;20122;-67
2023/07/15 04:24:52;;;;;;;6.50;4.47;;;;;;;21.05;100.00;98761.59;4485405;32;20084;-67
2023/07/15 04:27:20;;;;;;;6.22;4.45;;;;;;;21.12;100.00;98764.25;4485351;31;20096;-67
2023/07/15 04:29:47;;;;;;;6.80;4.30;;;;;;;21.18;100.00;98766.09;4485349;32;20096;-67
2023/07/15 04:32:14;;;;;;;5.25;4.18;;;;;;;21.26;100.00;98763.22;4485578;32;20104;-67
2023/07/15 04:34:47;;;;;;;11.75;4.65;;;;;;;21.37;100.00;98775.09;4485596;32;20114;-67
2023/07/15 04:37:14;;;;;;;5.40;3.80;;;;;;;21.53;100.00;98771.19;4485485;32;20117;-67
2023/07/15 04:39:42;;;;;;;5.30;4.20;;;;;;;21.61;100.00;98776.31;4485105;32;20119;-67
2023/07/15 04:42:10;;;;;;;7.62;4.43;;;;;;;21.73;100.00;98774.66;4485241;32;20110;-67
2023/07/15 04:44:38;;;;;;;7.80;4.25;;;;;;;21.78;99.35;98780.16;4483775;32;20122;-67
2023/07/15 04:47:06;;;;;;;7.50;4.90;;;;;;;21.79;100.00;98794.31;4485367;32;20153;-67
2023/07/15 04:49:33;;;;;;;5.65;4.20;;;;;;;21.77;97.79;98789.19;4484280;32;20171;-67
2023/07/15 04:52:02;;;;;;;9.70;4.50;;;;;;;21.91;98.11;98776.66;4485330;32;20118;-67
2023/07/15 04:54:30;;;;;;;6.57;4.47;;;;;;;21.98;97.65;98782.78;4485238;32;20088;-67
2023/07/15 04:56:57;;;;;;;7.37;4.25;;;;;;;22.10;97.33;98790.91;4485277;32;20994;-67
2023/07/15 04:59:25;;;;;;;9.73;4.65;;;;;;;22.34;96.00;98780.59;4484975;32;20525;-67
2023/07/15 05:01:53;;;;;;;5.37;4.50;;;;;;;22.26;94.73;98783.50;4485261;32;20096;-67
2023/07/15 05:04:20;;;;;;;4.90;3.97;;;;;;;22.36;94.63;98789.19;4484875;32;20472;-67
2023/07/15 05:06:48;;;;;;;4.87;3.90;;;;;;;22.35;94.58;98795.59;4484895;32;20383;-67
2023/07/15 05:09:17;;;;;;;7.43;4.90;;;;;;;22.48;93.97;98795.53;4484851;32;20183;-67
2023/07/15 05:11:46;;;;;;;7.72;3.70;;;;;;;22.58;93.58;98789.69;4485062;32;20103;-67
2023/07/15 05:14:13;;;;;;;10.20;3.60;;;;;;;22.71;93.24;98794.16;4484693;32;20393;-67
2023/07/15 05:16:43;;;;;;;5.90;3.95;;;;;;;22.89;93.29;98801.41;4485015;31;20101;-67
2023/07/15 05:19:11;;;;;;;6.32;4.47;;;;;;;22.97;92.63;98801.16;4485271;31;20100;-67
2023/07/15 05:21:38;;;;;;;6.78;4.05;;;;;;;23.01;91.29;98806.88;4485027;32;20118;-67
2023/07/15 05:24:06;;;;;;;5.95;4.50;;;;;;;22.94;91.56;98798.09;4484851;32;20092;-67
2023/07/15 05:26:34;;;;;;;7.75;3.80;;;;;;;22.91;88.79;98807.38;4485114;31;20141;-67
2023/07/15 05:29:01;;;;;;;4.97;3.72;;;;;;;23.10;90.15;98810.94;4484839;31;20088;-67
2023/07/15 05:31:30;;;;;;;5.82;3.85;;;;;;;23.30;88.47;98812.63;4484789;31;20151;-67
2023/07/15 05:33:58;;;;;;;5.22;4.10;;;;;;;23.54;87.29;98816.31;4484905;31;20554;-67
2023/07/15 05:36:26;;;;;;;8.60;4.12;;;;;;;23.73;84.72;98818.00;4484835;31;20092;-67
2023/07/15 05:38:53;;;;;;;7.15;3.95;;;;;;;23.88;84.93;98825.69;4484733;31;20159;-67
2023/07/15 05:41:21;;;;;;;5.53;3.87;;;;;;;24.11;84.86;98826.87;4484621;31;20083;-67
2023/07/15 05:43:50;;;;;;;5.40;4.70;;;;;;;24.31;82.10;98828.50;4484661;31;20092;-67
2023/07/15 05:46:18;;;;;;;6.25;3.83;;;;;;;24.05;80.79;98833.94;4484781;31;20446;-67
2023/07/15 05:48:47;;;;;;;6.07;3.50;;;;;;;24.06;82.69;98835.56;4484753;31;20084;-67
2023/07/15 05:51:16;;;;;;;5.18;3.67;;;;;;;24.22;81.38;98831.47;4484532;31;20540;-67
2023/07/15 05:53:45;;;;;;;6.15;4.10;;;;;;;24.39;80.10;98834.37;4484364;32;20084;-67
2023/07/15 05:56:12;;;;;;;9.57;4.10;;;;;;;24.62;78.20;98836.34;4484491;32;20092;-67
2023/07/15 05:58:40;;;;;;;5.20;4.15;;;;;;;24.61;78.15;98834.72;4484560;32;20100;-67
2023/07/15 06:01:07;;;;;;;14.13;4.65;;;;;;;24.73;78.10;98842.00;4486217;32;20100;-67
2023/07/15 06:03:35;;;;;;;6.03;4.30;;;;;;;24.71;79.73;98844.91;4486502;31;20092;-67
2023/07/15 06:06:03;;;;;;;8.57;4.05;;;;;;;25.02;76.86;98836.81;4486133;32;20161;-67
2023/07/15 06:08:32;;;;;;;7.40;4.72;;;;;;;25.16;75.66;98840.91;4486486;31;20156;-67
2023/07/15 06:11:00;;;;;;;7.35;4.93;;;;;;;25.14;75.59;98838.47;4486060;32;20088;-67
2023/07/15 06:13:28;;;;;;;8.90;4.55;;;;;;;25.33;76.52;98841.13;4486039;32;20124;-67
2023/07/15 06:15:58;;;;;;;5.75;4.55;;;;;;;25.37;77.29;98836.91;4486579;31;20097;-67
2023/07/15 06:18:25;;;;;;;7.05;4.10;;;;;;;25.48;77.18;98843.31;4486288;32;20100;-67
2023/07/15 06:20:53;;;;;;;6.37;4.00;;;;;;;25.65;75.94;98844.25;4484760;32;20552;-67
2023/07/15 06:23:21;;;;;;;3.95;3.58;;;;;;;25.76;75.66;98847.19;4485082;32;20106;-67
2023/07/15 06:25:48;;;;;;;9.18;4.10;;;;;;;25.89;75.63;98841.56;4486142;31;20101;-67
2023/07/15 06:28:15;;;;;;;6.55;3.78;;;;;;;26.05;74.64;98844.63;4486273;32;20097;-67
2023/07/15 06:30:48;;;;;;;6.62;3.80;;;;;;;26.11;75.38;98840.97;4485944;32;20096;-67
2023/07/15 06:33:16;;;;;;;8.98;3.67;;;;;;;26.28;74.07;98849.91;4486182;31;20189;-67
2023/07/15 06:35:43;;;;;;;8.10;4.03;;;;;;;26.44;73.50;98844.88;4486298;31;20099;-67
2023/07/15 06:38:10;;;;;;;9.35;4.07;;;;;;;26.65;71.35;98843.37;4486200;32;20115;-67
2023/07/15 06:40:37;;;;;;;6.70;4.00;;;;;;;26.65;71.82;98843.37;4485936;32;20592;-67
2023/07/15 06:43:05;;;;;;;7.85;4.07;;;;;;;26.76;72.92;98847.91;4486039;31;20089;-67
2023/07/15 06:45:36;;;;;;;5.57;3.80;;;;;;;26.45;72.90;98843.78;4485993;31;20148;-67
2023/07/15 06:48:03;;;;;;;6.75;3.60;;;;;;;26.68;71.42;98845.62;4486365;32;20127;-67
2023/07/15 06:50:31;;;;;;;5.55;4.20;;;;;;;26.86;71.04;98853.47;4485765;31;20179;-67
2023/07/15 06:52:58;;;;;;;4.22;3.70;;;;;;;26.95;70.93;98853.06;4470344;32;20131;-67
2023/07/15 06:55:26;;;;;;;8.18;4.18;;;;;;;27.04;72.27;98860.50;4470169;32;20100;-67
2023/07/15 06:57:54;;;;;;;5.50;3.92;;;;;;;27.17;72.25;98859.38;4470260;32;20092;-67
2023/07/15 07:00:24;;;;;;;7.53;3.60;;;;;;;27.33;70.04;98863.16;4470082;32;20164;-67
2023/07/15 07:02:52;;;;;;;6.37;4.72;;;;;;;27.38;68.31;98860.53;4470213;32;20439;-67
2023/07/15 07:05:19;;;;;;;7.68;4.10;;;;;;;27.49;70.22;98860.72;4469018;32;20101;-67
2023/07/15 07:07:47;;;;;;;6.85;3.90;;;;;;;27.27;69.92;98861.41;4470327;32;20605;-67
2023/07/15 07:10:15;;;;;;;6.50;3.95;;;;;;;27.47;68.96;98852.88;4469913;32;20115;-67
2023/07/15 07:12:46;;;;;;;5.93;4.25;;;;;;;27.47;69.68;98858.25;4469799;32;20076;-67
2023/07/15 07:15:13;;;;;;;5.45;3.80;;;;;;;27.47;69.77;98860.16;4485435;32;20100;-67
2023/07/15 07:17:41;;;;;;;4.85;3.97;;;;;;;27.64;67.70;98852.84;4501684;31;20092;-67
2023/07/15 07:20:09;;;;;;;4.60;3.25;;;;;;;27.87;66.49;98861.78;4501653;31;20114;-67
2023/07/15 07:22:37;;;;;;;4.97;3.00;;;;;;;27.96;68.76;98863.03;4501681;31;20095;-67
2023/07/15 07:25:06;;;;;;;7.28;3.62;;;;;;;27.88;68.02;98858.03;4501768;31;20433;-67
2023/07/15 07:27:33;;;;;;;5.35;3.58;;;;;;;28.15;66.16;98860.84;4501685;31;20153;-67
2023/07/15 07:30:00;;;;;;;4.68;3.60;;;;;;;28.25;66.83;98862.84;4501625;31;20527;-67
2023/07/15 07:32:27;;;;;;;4.93;3.62;;;;;;;28.26;66.70;98864.50;4501344;31;20400;-67
2023/07/15 07:34:55;;;;;;;5.37;3.80;;;;;;;28.12;67.83;98859.47;4501462;31;20139;-67
2023/07/15 07:37:23;;;;;;;8.02;3.80;;;;;;;28.39;68.16;98863.28;4501407;31;20544;-67
2023/07/15 07:39:51;;;;;;;9.77;4.35;;;;;;;28.53;67.75;98863.72;4487167;31;20167;-67
2023/07/15 07:42:19;;;;;;;5.03;3.50;;;;;;;28.41;67.94;98866.56;4501239;31;20157;-67
2023/07/15 07:44:46;;;;;;;8.82;3.72;;;;;;;28.49;67.75;98861.53;4501421;31;20239;-67
2023/07/15 07:47:14;;;;;;;7.62;3.65;;;;;;;28.71;68.30;98865.28;4501370;31;20099;-67
2023/07/15 07:49:42;;;;;;;4.50;3.28;;;;;;;28.80;65.17;98874.56;4501217;31;20084;-67
2023/07/15 07:52:10;;;;;;;7.95;4.65;;;;;;;28.96;65.17;98864.72;4490339;31;20448;-67
2023/07/15 07:54:39;;;;;;;6.05;3.72;;;;;;;28.84;63.84;98860.31;4485531;31;20127;-67
2023/07/15 07:57:08;;;;;;;6.00;3.58;;;;;;;28.66;66.14;98857.94;4485478;31;20587;-67
2023/07/15 07:59:36;;;;;;;5.22;3.80;;;;;;;28.89;64.57;98850.63;4485498;31;20156;-67
2023/07/15 08:02:05;;;;;;;7.05;4.00;;;;;;;29.05;66.26;98859.69;4485539;31;20167;-67
2023/07/15 08:04:36;;;;;;;10.77;3.17;;;;;;;29.14;65.58;98852.75;4485716;31;20656;-67
2023/07/15 08:07:04;;;;;;;3.70;3.40;;;;;;;29.29;64.48;98861.00;4485384;31;20179;-67
2023/07/15 08:09:31;;;;;;;6.68;3.92;;;;;;;29.32;60.03;98860.47;4485419;31;20171;-67
2023/07/15 08:11:59;;;;;;;13.70;4.47;;;;;;;29.34;64.69;98858.34;4485408;31;20145;-67
2023/07/15 08:14:26;;;;;;;6.45;4.22;;;;;;;29.17;62.88;98857.63;4485461;31;20468;-67
2023/07/15 08:16:53;;;;;;;7.50;3.90;;;;;;;28.93;63.40;98851.75;4485323;32;20092;-67
2023/07/15 08:19:21;;;;;;;9.10;4.65;;;;;;;29.09;66.10;98860.81;4485553;31;20116;-67
2023/07/15 08:21:49;;;;;;;5.60;4.50;;;;;;;29.34;64.36;98858.34;4501000;31;20480;-67
2023/07/15 08:24:17;;;;;;;5.32;4.40;;;;;;;29.40;64.45;98861.88;4501123;31;20119;-67
2023/07/15 08:26:44;;;;;;;7.78;4.43;;;;;;;29.74;62.81;98864.28;4486652;31;20113;-67
2023/07/15 08:29:13;;;;;;;7.70;4.65;;;;;;;29.33;61.39;98859.41;4501005;31;20116;-67
2023/07/15 08:31:40;;;;;;;7.45;4.12;;;;;;;29.37;64.54;98862.41;4500971;31;20200;-67
2023/07/15 08:34:08;;;;;;;6.45;4.32;;;;;;;29.17;65.54;98860.31;4500975;31;20438;-67
2023/07/15 08:36:36;;;;;;;8.80;4.40;;;;;;;29.38;62.76;98864.03;4501037;31;20099;-67
2023/07/15 08:39:04;;;;;;;6.50;4.68;;;;;;;29.42;64.71;98869.72;4501066;31;20495;-67
2023/07/15 08:41:31;;;;;;;6.00;4.20;;;;;;;29.43;64.45;98865.94;4500892;31;20138;-67
2023/07/15 08:43:59;;;;;;;8.88;4.18;;;;;;;29.29;63.84;98863.69;4486803;31;20127;-67
2023/07/15 08:46:30;;;;;;;5.15;3.72;;;;;;;29.60;63.10;98860.41;4501133;31;20119;-67
2023/07/15 08:48:59;;;;;;;5.07;4.40;;;;;;;29.91;62.66;98869.53;4500673;31;20163;-67
2023/07/15 08:51:45;;;;;;;6.15;3.58;;;;;;;29.63;61.06;98870.69;4484136;32;20118;-67
2023/07/15 08:54:13;;;;;;;6.80;3.60;;;;;;;29.86;61.13;98872.22;4485115;31;20097;-67
2023/07/15 08:56:40;;;;;;;6.72;3.28;;;;;;;29.48;62.40;98864.13;4483859;32;20104;-67
2023/07/15 08:59:07;;;;;;;3.75;3.22;;;;;;;29.52;60.63;98862.53;4483939;32;20850;-67
2023/07/15 09:01:35;;;;;;;4.78;3.33;;;;;;;29.54;59.02;98868.47;4484198;32;20097;-67
2023/07/15 09:04:02;;;;;;;5.55;3.47;;;;;;;29.43;59.75;98869.47;4484857;31;20085;-67
2023/07/15 09:06:30;;;;;;;5.12;3.65;;;;;;;29.36;59.98;98872.37;4484981;31;20442;-67
2023/07/15 09:08:57;;;;;;;4.03;3.00;;;;;;;29.43;61.23;98866.75;4484858;32;20100;-67
2023/07/15 09:11:37;;;;;;;4.45;3.70;;;;;;;29.93;56.53;98875.47;4484925;31;20141;-67
2023/07/15 09:14:17;;;;;;;7.20;3.80;;;;;;;29.82;59.05;98876.50;4484845;31;20096;-67
2023/07/15 09:16:44;;;;;;;3.97;3.50;;;;;;;29.95;58.34;98877.91;4485027;31;20152;-67
2023/07/15 09:19:12;;;;;;;8.68;4.20;;;;;;;29.92;60.82;98873.87;4484865;31;20092;-67
2023/07/15 09:21:50;;;;;;;9.50;4.12;;;;;;;29.84;61.27;98874.34;4484973;31;20097;-67
2023/07/15 09:24:20;;;;;;;6.95;3.75;;;;;;;29.80;64.04;98873.25;4484919;31;20085;-68
2023/07/15 09:26:59;;;;;;;5.37;3.80;;;;;;;30.25;61.17;98872.69;4483472;32;20109;-68
2023/07/15 09:29:27;;;;;;;4.40;3.37;;;;;;;30.91;58.86;98873.97;4484784;31;20137;-67
2023/07/15 09:31:54;;;;;;;3.85;3.03;;;;;;;31.37;56.63;98875.09;4484633;31;20076;-67
2023/07/15 09:34:25;;;;;;;4.10;3.70;;;;;;;31.87;55.16;98872.63;4484020;31;20522;-68
2023/07/15 09:36:54;;;;;;;7.90;3.47;;;;;;;31.45;53.96;98871.84;4484708;31;20092;-68
2023/07/15 09:39:23;;;;;;;5.05;3.40;;;;;;;31.32;56.25;98876.72;4500598;31;20155;-68
2023/07/15 09:42:05;;;;;;;3.42;2.78;;;;;;;31.12;56.67;98863.19;4500401;31;20347;-68
2023/07/15 09:44:40;;;;;;;3.87;2.92;;;;;;;31.45;53.95;98877.28;4500408;31;20108;-67
2023/07/15 09:47:07;;;;;;;4.35;3.45;;;;;;;31.50;52.91;98875.34;4500476;31;20091;-68
2023/07/15 09:49:36;;;;;;;7.05;2.90;;;;;;;31.75;54.81;98871.03;4500489;31;20088;-68
2023/07/15 09:52:05;;;;;;;2.92;2.72;;;;;;;31.99;51.42;98870.41;4490161;31;20092;-68
2023/07/15 09:54:34;;;;;;;3.87;2.95;;;;;;;32.02;51.18;98870.69;4484318;31;20161;-68
2023/07/15 09:57:13;;;;;;;6.37;3.12;;;;;;;32.02;51.49;98862.56;4484560;31;20088;-68
2023/07/15 09:59:45;;;;;;;5.05;2.60;;;;;;;32.32;52.13;98865.44;4484330;31;20092;-68
2023/07/15 10:02:41;;;;;;;4.82;2.60;;;;;;;31.90;53.18;98864.75;4484532;31;20442;-68
2023/07/15 10:05:14;;;;;;;4.40;3.00;;;;;;;32.40;52.46;98867.56;4484273;32;20566;-68
2023/07/15 10:07:42;;;;;;;3.50;2.53;;;;;;;32.57;49.45;98859.09;4484579;31;20119;-68
2023/07/15 10:10:09;;;;;;;5.93;2.85;;;;;;;32.83;49.66;98861.66;4483125;32;20462;-68
2023/07/15 10:12:37;;;;;;;3.97;2.50;;;;;;;32.89;48.30;98857.81;4483107;32;20087;-68
2023/07/15 10:15:05;;;;;;;5.22;3.00;;;;;;;32.46;49.12;98865.63;4473829;31;20131;-68
2023/07/15 10:17:35;;;;;;;4.25;2.70;;;;;;;32.47;50.21;98854.50;4500054;31;20794;-68
2023/07/15 10:20:05;;;;;;;8.15;3.00;;;;;;;32.57;46.88;98859.09;4499860;31;20115;-68
2023/07/15 10:22:34;;;;;;;4.97;3.45;;;;;;;32.49;49.66;98856.94;4499899;31;20102;-68
2023/07/15 10:25:03;;;;;;;4.50;3.00;;;;;;;32.06;51.59;98857.37;4499726;31;20111;-68
2023/07/15 10:27:32;;;;;;;3.70;2.55;;;;;;;32.77;52.30;98857.37;4499855;31;20174;-68
2023/07/15 10:30:15;;;;;;;4.72;2.65;;;;;;;33.04;47.86;98857.72;4499688;31;20108;-68
2023/07/15 10:32:58;;;;;;;5.00;2.80;;;;;;;33.02;48.80;98857.19;4500132;31;20098;-68
2023/07/15 10:35:49;;;;;;;4.60;2.58;;;;;;;33.24;46.90;98853.22;4499713;31;20088;-68
2023/07/15 10:38:31;;;;;;;4.15;2.62;;;;;;;33.45;49.22;98855.75;4499732;31;20080;-68
2023/07/15 10:41:02;;;;;;;5.20;3.05;;;;;;;33.62;45.63;98858.84;4499755;31;20171;-68
2023/07/15 10:43:40;;;;;;;4.70;2.95;;;;;;;33.62;46.58;98858.84;4499478;31;20144;-68
2023/07/15 10:46:11;;;;;;;3.92;2.80;;;;;;;33.45;47.07;98855.75;4500108;31;20913;-68
2023/07/15 10:48:40;;;;;;;4.68;2.47;;;;;;;33.33;49.30;98854.22;4501821;31;20091;-68
2023/07/15 10:51:11;;;;;;;7.80;2.85;;;;;;;33.87;46.67;98859.69;4497733;31;20128;-68
2023/07/15 10:53:38;;;;;;;4.70;2.95;;;;;;;34.01;44.35;98854.41;4485992;31;20080;-68
2023/07/15 10:56:10;;;;;;;5.10;3.12;;;;;;;33.73;42.01;98860.41;4485830;31;20153;-68
2023/07/15 10:58:40;;;;;;;5.18;3.20;;;;;;;33.50;45.57;98858.44;4486005;32;20126;-68
2023/07/15 11:01:10;;;;;;;3.55;3.22;;;;;;;33.05;48.40;98856.63;4485939;31;20087;-68
2023/07/15 11:03:39;;;;;;;3.40;3.10;;;;;;;33.20;47.22;98849.47;4485728;32;20149;-68
2023/07/15 11:06:07;;;;;;;6.00;3.08;;;;;;;33.18;48.13;98855.16;4486217;31;20116;-68
2023/07/15 11:08:39;;;;;;;5.05;2.90;;;;;;;33.37;49.10;98841.72;4485789;31;20088;-68
2023/07/15 11:11:10;;;;;;;7.43;2.70;;;;;;;33.06;51.92;98839.22;4485950;31;20108;-68
2023/07/15 11:13:40;;;;;;;4.37;2.92;;;;;;;33.62;47.79;98844.47;4485561;31;20148;-68
2023/07/15 11:16:10;;;;;;;3.30;2.67;;;;;;;33.47;45.52;98834.56;4485866;31;20118;-68
2023/07/15 11:18:37;;;;;;;3.03;2.72;;;;;;;33.42;45.30;98835.41;4485717;31;20140;-68
2023/07/15 11:21:06;;;;;;;4.62;2.85;;;;;;;33.47;47.19;98835.37;4501511;31;20118;-68
2023/07/15 11:23:34;;;;;;;3.00;2.70;;;;;;;33.05;45.76;98832.19;4501331;31;20373;-68
2023/07/15 11:26:09;;;;;;;4.72;3.03;;;;;;;32.70;47.55;98831.38;4501525;31;20153;-68
2023/07/15 11:28:50;;;;;;;11.75;3.65;;;;;;;32.66;49.66;98824.03;4501545;31;20084;-68
2023/07/15 11:31:21;;;;;;;8.52;3.30;;;;;;;32.62;47.09;98823.78;4501460;31;20509;-68
2023/07/15 11:33:53;;;;;;;3.10;2.80;;;;;;;32.41;52.49;98823.09;4501309;31;20172;-68
2023/07/15 11:36:20;;;;;;;3.72;2.72;;;;;;;33.42;51.09;98833.50;4501518;31;20084;-68
2023/07/15 11:38:48;;;;;;;13.88;3.35;;;;;;;33.63;47.85;98822.44;4487190;31;20111;-68